Cp306 — IGTY — position and weather

sailwx.info

Track history (hours):
 
Tides and Currents Weather Stations Pressure Air Temp Water Temp Dewpoint Dewpoint Depression Visibility Wind Speed Wind Dir Waves Ship Positions

Cp306

Last reported at 2014-Jun-12 08:29 UTC. Time now 2014-Jul-23 09:49 UTC.
Position N 36°53' E 011°55'.
Warning: this ship's position is 41 days out of date.

MMSI: 247263600.

Date/timePositionNaut miles runAvg speedWind from/ knotsBaromVisibWave heightAir tempDewpointWater temp
2014-Jun-12 08:29N 36°53' E 011°55'9 4.5
2014-Jun-12 06:30N 36°48' E 012°04'5126.5
2014-Jun-12 04:33N 35°59' E 012°22'2926.9
2014-Jun-12 03:29N 35°31' E 012°30'  
2014-Jun-06 07:34N 35°16' E 012°35'2726.6
2014-Jun-06 06:33N 34°50' E 012°31'2121.0
2014-Jun-06 05:34N 34°29' E 012°28'7 0.9
2014-Jun-05 21:34N 34°22' E 012°30'1919.3
2014-Jun-05 20:33N 34°41' E 012°33'2828.0
2014-Jun-05 19:33N 35°09' E 012°35'  
Track history (hours):
 
Tides and Currents Weather Stations Pressure Air Temp Water Temp Dewpoint Dewpoint Depression Visibility Wind Speed Wind Dir Waves Ship Positions

Cp306

Last reported at 2014-Jun-12 08:29 UTC. Time now 2014-Jul-23 09:49 UTC.
Position N 36°53' E 011°55'.
Warning: this ship's position is 41 days out of date.

MMSI: 247263600.

Date/timePositionNaut miles runAvg speedWind from/ knotsBaromVisibWave heightAir tempDewpointWater temp
2014-Jun-12 08:29N 36°53' E 011°55'9 4.5
2014-Jun-12 06:30N 36°48' E 012°04'5126.5
2014-Jun-12 04:33N 35°59' E 012°22'2926.9
2014-Jun-12 03:29N 35°31' E 012°30'  
2014-Jun-06 07:34N 35°16' E 012°35'2726.6
2014-Jun-06 06:33N 34°50' E 012°31'2121.0
2014-Jun-06 05:34N 34°29' E 012°28'7 0.9
2014-Jun-05 21:34N 34°22' E 012°30'1919.3
2014-Jun-05 20:33N 34°41' E 012°33'2828.0
2014-Jun-05 19:33N 35°09' E 012°35'  

Dump ship's entire track history